Time;durP1;ratioP1;P1;durP2;ratioP2;P2;SDS_P1;SDS_P2;PMS_P1;PMS_P2;Temp;Humidity;BMP_temperature;BMP_pressure;BME280_temperature;BME280_humidity;BME280_pressure;Samples;Min_cycle;Max_cycle;Signal;HPM_P1;HPM_P2
2022/12/10 00:00:33;;;;;;;5.73;4.47;;;;;;;18.49;51.91;99137.28;5089918;28;20833;-64
2022/12/10 00:02:58;;;;;;;6.33;3.90;;;;;;;18.47;52.20;99139.72;5089519;28;20528;-65
2022/12/10 00:05:24;;;;;;;7.20;4.80;;;;;;;18.52;51.93;99142.19;5075460;28;20207;-64
2022/12/10 00:07:49;;;;;;;5.60;3.77;;;;;;;18.47;52.08;99143.38;5070621;28;20164;-65
2022/12/10 00:10:15;;;;;;;6.63;4.13;;;;;;;18.50;52.01;99150.34;5085098;28;20207;-65
2022/12/10 00:12:40;;;;;;;7.83;4.30;;;;;;;18.55;52.05;99149.91;5089467;28;20172;-65
2022/12/10 00:15:06;;;;;;;6.77;4.47;;;;;;;18.47;51.93;99146.25;5072844;28;20188;-65
2022/12/10 00:17:31;;;;;;;5.27;4.03;;;;;;;18.46;51.91;99147.47;5069863;28;20168;-65
2022/12/10 00:19:57;;;;;;;5.60;4.20;;;;;;;18.45;52.05;99154.44;5072774;28;20172;-64
2022/12/10 00:22:22;;;;;;;6.07;4.37;;;;;;;18.48;51.88;99153.63;5069623;28;20174;-64
2022/12/10 00:24:48;;;;;;;5.40;4.10;;;;;;;18.47;52.34;99154.03;5076888;28;20191;-65
2022/12/10 00:27:14;;;;;;;6.77;4.30;;;;;;;18.44;52.16;99140.53;5069475;28;20175;-65
2022/12/10 00:29:39;;;;;;;5.40;3.47;;;;;;;18.47;51.99;99149.09;5070548;28;20278;-66
2022/12/10 00:32:05;;;;;;;6.03;4.30;;;;;;;18.47;51.96;99140.53;5068065;28;20863;-64
2022/12/10 00:34:31;;;;;;;5.57;4.00;;;;;;;18.53;51.66;99138.09;5086454;28;20190;-64
2022/12/10 00:36:56;;;;;;;4.63;3.40;;;;;;;18.42;52.16;99146.66;5087774;28;20412;-64
2022/12/10 00:39:22;;;;;;;5.70;3.90;;;;;;;18.45;52.27;99151.56;5075621;28;20183;-64
2022/12/10 00:41:47;;;;;;;5.80;3.90;;;;;;;18.46;52.23;99150.34;5068113;28;20207;-65
2022/12/10 00:44:13;;;;;;;5.30;3.53;;;;;;;18.39;52.34;99149.53;5085715;28;20192;-65
2022/12/10 00:46:39;;;;;;;5.50;3.83;;;;;;;18.44;52.12;99157.69;5088295;28;20178;-64
2022/12/10 00:49:04;;;;;;;5.70;3.67;;;;;;;18.42;51.98;99158.09;5072517;28;20209;-65
2022/12/10 00:51:30;;;;;;;9.03;4.30;;;;;;;18.47;52.04;99157.69;5050351;28;20175;-65
2022/12/10 00:53:56;;;;;;;7.63;4.33;;;;;;;18.48;52.09;99164.22;5082208;28;20270;-64
2022/12/10 00:56:24;;;;;;;6.40;4.43;;;;;;;18.47;52.12;99163.41;5090036;28;20241;-65
2022/12/10 00:58:49;;;;;;;6.33;4.40;;;;;;;18.47;51.82;99159.75;5072044;28;20504;-64
2022/12/10 01:01:26;;;;;;;6.17;4.03;;;;;;;18.44;51.92;99167.09;5071079;28;20418;-65
2022/12/10 01:03:54;;;;;;;5.70;3.80;;;;;;;18.42;52.45;99172.38;5073620;28;20214;-64
2022/12/10 01:06:23;;;;;;;5.63;3.90;;;;;;;18.48;51.91;99167.91;5089696;28;20438;-65
2022/12/10 01:08:49;;;;;;;6.33;4.27;;;;;;;18.53;52.15;99167.50;5089689;28;20469;-64
2022/12/10 01:11:16;;;;;;;6.10;3.73;;;;;;;18.49;52.13;99165.84;5085978;28;20468;-64
2022/12/10 01:13:42;;;;;;;6.00;4.20;;;;;;;18.40;52.28;99157.69;5051996;28;20419;-64
2022/12/10 01:16:08;;;;;;;5.37;3.60;;;;;;;18.47;51.93;99163.41;5069065;28;20422;-64
2022/12/10 01:18:34;;;;;;;6.10;4.60;;;;;;;18.39;52.30;99164.63;5068975;28;20191;-65
2022/12/10 01:21:06;;;;;;;6.13;4.00;;;;;;;18.42;52.27;99168.72;5072157;28;20431;-65
2022/12/10 01:23:33;;;;;;;4.03;3.00;;;;;;;18.43;52.28;99168.31;5069063;28;20259;-65
2022/12/10 01:26:00;;;;;;;6.40;3.70;;;;;;;18.43;52.36;99168.31;5053213;28;20464;-64
2022/12/10 01:28:27;;;;;;;7.33;3.60;;;;;;;18.48;52.07;99165.06;5051731;28;20786;-64
2022/12/10 01:30:52;;;;;;;6.40;4.03;;;;;;;18.46;52.09;99158.91;5053131;28;20981;-64
2022/12/10 01:33:18;;;;;;;4.70;3.60;;;;;;;18.46;51.95;99158.91;5077615;28;20425;-64
2022/12/10 01:35:43;;;;;;;5.20;4.03;;;;;;;18.48;52.00;99156.47;5086540;28;20170;-64
2022/12/10 01:38:09;;;;;;;6.13;3.47;;;;;;;18.44;52.34;99151.97;5086518;28;20207;-64
2022/12/10 01:40:37;;;;;;;4.77;3.87;;;;;;;18.43;52.37;99151.16;5086679;28;20171;-65
2022/12/10 01:43:03;;;;;;;6.00;4.17;;;;;;;18.44;52.16;99149.94;5070006;28;20253;-64
2022/12/10 01:45:28;;;;;;;4.80;3.50;;;;;;;18.42;52.43;99154.44;5066698;28;20419;-64
2022/12/10 01:47:54;;;;;;;5.23;4.00;;;;;;;18.43;52.75;99156.06;5066629;28;20184;-64
2022/12/10 01:50:19;;;;;;;5.40;3.40;;;;;;;18.48;51.98;99158.50;5067923;28;20210;-64
2022/12/10 01:52:45;;;;;;;5.70;3.50;;;;;;;18.45;52.01;99159.31;5086977;28;20183;-65
2022/12/10 01:55:41;;;;;;;5.07;3.60;;;;;;;18.41;52.18;99167.09;5051250;28;20195;-65
2022/12/10 01:58:07;;;;;;;5.60;3.43;;;;;;;18.42;52.17;99174.44;5067049;28;20234;-64
2022/12/10 02:01:08;;;;;;;6.60;3.80;;;;;;;18.45;52.01;99165.84;5050032;28;20752;-65
2022/12/10 02:03:52;;;;;;;5.57;4.00;;;;;;;18.40;52.19;99171.97;5067110;28;20206;-65
2022/12/10 02:06:36;;;;;;;5.40;3.50;;;;;;;18.48;51.98;99167.91;5087759;28;20433;-65
2022/12/10 02:09:28;;;;;;;4.60;3.33;;;;;;;18.45;52.05;99183.00;5073277;28;20445;-65
2022/12/10 02:12:27;;;;;;;6.13;3.83;;;;;;;18.42;52.35;99178.09;5062632;28;20821;-64
2022/12/10 02:15:08;;;;;;;5.90;3.70;;;;;;;18.40;51.96;99180.56;5067299;28;20407;-64
2022/12/10 02:17:42;;;;;;;4.47;3.50;;;;;;;18.39;51.64;99178.94;5051875;28;20449;-64
2022/12/10 02:20:18;;;;;;;4.43;3.33;;;;;;;18.37;52.35;99174.84;5049703;28;20500;-64
2022/12/10 02:23:00;;;;;;;5.00;3.20;;;;;;;18.39;52.23;99173.22;5068199;28;20478;-64
2022/12/10 02:25:43;;;;;;;5.93;3.97;;;;;;;18.38;52.08;99173.59;5071311;28;20442;-64
2022/12/10 02:28:27;;;;;;;3.83;3.10;;;;;;;18.38;52.13;99170.75;5049854;28;20406;-64
2022/12/10 02:30:52;;;;;;;7.50;3.27;;;;;;;18.36;52.34;99182.59;5053769;28;20960;-64
2022/12/10 02:33:18;;;;;;;5.93;3.40;;;;;;;18.37;52.25;99174.84;5080086;28;20440;-65
2022/12/10 02:35:43;;;;;;;4.73;3.60;;;;;;;18.37;52.28;99175.63;5066000;28;20184;-64
2022/12/10 02:38:15;;;;;;;4.87;3.43;;;;;;;18.39;52.02;99161.78;5087564;28;20621;-64
2022/12/10 02:40:44;;;;;;;4.30;3.10;;;;;;;18.39;51.89;99167.50;5052628;28;20207;-64
2022/12/10 02:43:10;;;;;;;4.30;2.97;;;;;;;18.39;52.17;99164.63;5077346;28;20421;-64
2022/12/10 02:45:35;;;;;;;4.73;3.43;;;;;;;18.39;52.16;99170.34;5068971;28;20417;-64
2022/12/10 02:48:01;;;;;;;5.27;3.70;;;;;;;18.43;52.17;99174.03;5066829;28;20175;-64
2022/12/10 02:50:27;;;;;;;5.70;3.60;;;;;;;18.40;52.14;99166.25;5069332;28;20207;-64
2022/12/10 02:52:52;;;;;;;7.63;3.53;;;;;;;18.39;52.19;99173.22;5069514;28;20919;-64
2022/12/10 02:55:19;;;;;;;5.23;3.43;;;;;;;18.41;52.21;99169.94;5071018;28;20210;-65
2022/12/10 02:57:56;;;;;;;5.47;3.40;;;;;;;18.38;52.29;99179.31;5066749;28;20227;-65
2022/12/10 03:00:22;;;;;;;4.40;3.10;;;;;;;18.38;51.97;99180.16;5080146;28;20421;-65
2022/12/10 03:03:19;;;;;;;6.50;3.70;;;;;;;18.33;52.09;99186.28;5068869;28;20432;-65
2022/12/10 03:05:59;;;;;;;4.63;3.40;;;;;;;18.31;52.65;99188.66;5059734;28;20560;-64
2022/12/10 03:08:37;;;;;;;5.00;3.67;;;;;;;18.37;52.09;99187.06;5070246;28;20444;-65
2022/12/10 03:11:15;;;;;;;4.67;3.20;;;;;;;18.37;52.31;99195.63;5071648;28;20540;-64
2022/12/10 03:14:13;;;;;;;4.33;3.33;;;;;;;18.38;52.07;99185.03;5068848;28;20415;-64
2022/12/10 03:16:41;;;;;;;5.20;3.57;;;;;;;18.31;52.26;99191.53;5046952;28;20523;-65
2022/12/10 03:19:10;;;;;;;4.33;3.17;;;;;;;18.34;52.21;99189.94;5056318;28;20401;-65
2022/12/10 03:21:36;;;;;;;5.73;3.73;;;;;;;18.36;52.00;99199.72;5074126;28;20429;-64
2022/12/10 03:24:02;;;;;;;4.80;3.07;;;;;;;18.35;52.04;99192.38;5036132;28;20414;-64
2022/12/10 03:26:27;;;;;;;5.87;3.80;;;;;;;18.31;52.26;99196.44;5038626;28;20202;-65
2022/12/10 03:28:56;;;;;;;4.20;3.30;;;;;;;18.37;52.01;99206.28;5070883;28;20168;-65
2022/12/10 03:31:21;;;;;;;5.53;3.27;;;;;;;18.35;52.16;99209.53;5071189;28;20525;-65
2022/12/10 03:33:47;;;;;;;4.37;3.20;;;;;;;18.36;52.22;99201.78;5085375;28;20424;-64
2022/12/10 03:36:13;;;;;;;4.70;3.17;;;;;;;18.36;52.14;99198.94;5073519;28;20231;-64
2022/12/10 03:38:38;;;;;;;4.33;3.37;;;;;;;18.34;52.13;99204.22;5056049;28;20188;-65
2022/12/10 03:41:04;;;;;;;5.60;3.63;;;;;;;18.32;52.26;99195.22;5054878;28;20195;-65
2022/12/10 03:43:29;;;;;;;5.13;3.10;;;;;;;18.32;52.21;99198.91;5090991;28;20193;-65
2022/12/10 03:45:54;;;;;;;4.60;3.27;;;;;;;18.29;52.19;99201.72;5090559;28;20167;-65
2022/12/10 03:48:20;;;;;;;5.43;3.53;;;;;;;18.32;52.27;99187.47;5086577;28;20196;-65
2022/12/10 03:50:45;;;;;;;4.93;3.50;;;;;;;18.36;52.20;99193.22;5089455;28;20202;-64
2022/12/10 03:53:11;;;;;;;4.77;3.50;;;;;;;18.34;52.21;99202.19;5090791;28;20307;-65
2022/12/10 03:55:37;;;;;;;4.20;3.13;;;;;;;18.33;52.17;99189.13;5088688;28;20182;-64
2022/12/10 03:58:03;;;;;;;4.33;2.80;;;;;;;18.34;51.97;99189.94;5071986;28;20246;-64
2022/12/10 04:00:28;;;;;;;4.27;2.83;;;;;;;18.27;52.21;99190.69;5052931;28;20460;-65
2022/12/10 04:02:54;;;;;;;4.33;2.87;;;;;;;18.33;51.98;99194.84;5077774;28;20581;-64
2022/12/10 04:05:19;;;;;;;5.83;3.60;;;;;;;18.30;52.19;99192.75;5090360;28;20191;-65
2022/12/10 04:07:44;;;;;;;4.83;3.03;;;;;;;18.30;52.13;99186.22;5079389;28;20550;-65
2022/12/10 04:10:10;;;;;;;5.43;3.53;;;;;;;18.33;52.00;99188.31;5070371;28;20211;-64
2022/12/10 04:12:35;;;;;;;4.97;3.50;;;;;;;18.35;52.06;99186.66;5070468;28;20666;-65
2022/12/10 04:17:45;;;;;;;4.10;2.70;;;;;;;18.33;52.34;99191.16;5072944;28;20245;-64
2022/12/10 04:26:51;;;;;;;4.30;2.83;;;;;;;18.29;52.24;99185.41;5070734;28;20898;-65
2022/12/10 04:28:24;;;;;;;4.23;2.97;;;;;;;18.31;52.21;99196.44;5075700;28;20448;-65
2022/12/10 04:30:49;;;;;;;4.43;3.10;;;;;;;18.37;51.93;99191.97;5087866;28;20458;-64
2022/12/10 04:33:14;;;;;;;6.70;3.47;;;;;;;18.35;51.88;99189.53;5089470;28;20171;-64
2022/12/10 04:35:40;;;;;;;4.80;3.07;;;;;;;18.32;52.16;99190.31;5090163;28;20159;-65
2022/12/10 04:38:05;;;;;;;4.50;3.17;;;;;;;18.35;51.88;99188.69;5088919;28;20171;-65
2022/12/10 04:40:31;;;;;;;3.20;2.10;;;;;;;18.28;52.25;99188.66;5087856;28;21013;-64
2022/12/10 04:42:56;;;;;;;3.97;2.77;;;;;;;18.39;52.08;99178.09;5090184;28;20579;-65
2022/12/10 04:45:22;;;;;;;4.20;2.50;;;;;;;18.36;51.82;99174.00;5089182;28;20182;-65
2022/12/10 04:47:47;;;;;;;4.20;3.00;;;;;;;18.38;52.08;99176.47;5088835;28;20183;-65
2022/12/10 04:50:12;;;;;;;4.00;2.57;;;;;;;18.33;52.14;99174.84;5080188;28;20200;-64
2022/12/10 04:52:38;;;;;;;4.20;2.83;;;;;;;18.33;51.80;99179.72;5067905;28;20164;-64
2022/12/10 04:55:04;;;;;;;4.30;3.00;;;;;;;18.32;51.91;99190.31;5067706;28;20808;-64
2022/12/10 04:57:29;;;;;;;4.03;2.90;;;;;;;18.32;52.08;99187.47;5067718;28;20227;-64
2022/12/10 04:59:55;;;;;;;3.90;2.53;;;;;;;18.35;51.86;99186.66;5071877;28;20186;-65
2022/12/10 05:02:20;;;;;;;4.10;2.43;;;;;;;18.35;52.06;99195.25;5089755;28;20171;-65
2022/12/10 05:04:47;;;;;;;4.90;2.80;;;;;;;18.34;51.77;99202.19;5085560;28;20206;-64
2022/12/10 05:07:13;;;;;;;4.73;2.93;;;;;;;18.33;51.94;99209.13;5052422;28;20168;-65
2022/12/10 05:09:38;;;;;;;4.70;3.60;;;;;;;18.35;51.92;99218.09;5087876;28;20979;-65
2022/12/10 05:12:04;;;;;;;4.27;2.93;;;;;;;18.36;52.17;99210.34;5072187;28;20167;-65
2022/12/10 05:14:29;;;;;;;3.90;2.40;;;;;;;18.37;52.03;99209.13;5082717;28;20888;-65
2022/12/10 05:16:55;;;;;;;4.00;2.80;;;;;;;18.30;52.16;99207.03;5068994;28;20167;-64
2022/12/10 05:19:21;;;;;;;3.50;2.50;;;;;;;18.38;52.14;99205.88;5069509;28;20176;-65
2022/12/10 05:24:31;;;;;;;3.97;3.00;;;;;;;18.37;52.03;99203.41;5056896;28;20437;-65
2022/12/10 05:26:57;;;;;;;4.53;2.77;;;;;;;18.36;51.87;99208.31;5069881;28;20410;-65
2022/12/10 05:29:22;;;;;;;4.40;2.77;;;;;;;18.36;52.01;99208.31;5069248;28;20213;-64
2022/12/10 05:31:48;;;;;;;4.17;3.13;;;;;;;18.41;51.66;99209.97;5068705;28;20170;-65
2022/12/10 05:34:13;;;;;;;5.20;2.97;;;;;;;18.37;51.86;99211.97;5074188;28;20212;-65
2022/12/10 05:36:39;;;;;;;3.47;2.30;;;;;;;18.42;52.03;99208.72;5068706;28;20152;-65
2022/12/10 05:39:04;;;;;;;4.03;2.87;;;;;;;18.37;52.04;99209.94;5068346;28;20198;-64
2022/12/10 05:41:31;;;;;;;4.50;2.50;;;;;;;18.33;51.82;99209.13;5080851;28;20182;-65
2022/12/10 05:43:57;;;;;;;4.20;2.60;;;;;;;18.42;51.88;99217.31;5080896;28;20274;-65
2022/12/10 05:46:24;;;;;;;3.70;2.70;;;;;;;18.39;51.77;99218.09;5069002;28;20489;-64
2022/12/10 05:48:50;;;;;;;3.57;2.70;;;;;;;18.41;51.81;99227.91;5073041;28;20420;-64
2022/12/10 05:51:17;;;;;;;4.00;2.97;;;;;;;18.36;51.85;99225.44;5089073;28;20449;-65
2022/12/10 05:53:42;;;;;;;3.83;2.50;;;;;;;18.36;51.80;99224.66;5076318;28;20187;-65
2022/12/10 05:56:13;;;;;;;3.87;2.50;;;;;;;18.37;52.04;99241.34;5068257;28;20416;-65
2022/12/10 05:58:39;;;;;;;3.90;2.57;;;;;;;18.39;52.04;99243.81;5070919;28;20223;-65
2022/12/10 06:01:12;;;;;;;4.07;2.93;;;;;;;18.32;51.91;99252.34;5071673;28;20449;-64
2022/12/10 06:03:38;;;;;;;3.87;2.57;;;;;;;18.31;52.00;99250.72;5061491;28;20831;-64
2022/12/10 06:06:03;;;;;;;3.40;2.50;;;;;;;18.37;51.79;99254.84;5071383;28;20426;-65
2022/12/10 06:08:29;;;;;;;4.30;2.67;;;;;;;18.42;51.83;99263.81;5069802;28;20202;-64
2022/12/10 06:10:56;;;;;;;4.00;2.67;;;;;;;18.37;52.04;99278.50;5089012;28;20223;-65
2022/12/10 06:13:21;;;;;;;3.33;2.40;;;;;;;18.39;52.34;99275.25;5088282;28;20170;-65
2022/12/10 06:15:46;;;;;;;3.57;2.47;;;;;;;18.36;51.84;99276.88;5086435;28;20433;-64
2022/12/10 06:18:12;;;;;;;3.90;2.90;;;;;;;18.36;52.06;99271.16;5069101;28;20195;-65
2022/12/10 06:20:39;;;;;;;3.60;2.53;;;;;;;18.37;51.74;99269.13;5068755;28;20180;-65
2022/12/10 06:23:04;;;;;;;4.40;2.93;;;;;;;18.36;51.99;99276.88;5068348;28;20180;-65
2022/12/10 06:25:30;;;;;;;3.60;2.67;;;;;;;18.38;51.80;99285.88;5074992;28;20445;-65
2022/12/10 06:27:55;;;;;;;4.00;2.67;;;;;;;18.39;51.84;99284.66;5067854;28;20203;-64
2022/12/10 06:30:21;;;;;;;3.50;2.60;;;;;;;18.35;52.11;99283.00;5073195;28;20191;-64
2022/12/10 06:32:46;;;;;;;4.03;2.70;;;;;;;18.41;51.79;99292.84;5083407;28;20190;-64
2022/12/10 06:35:12;;;;;;;3.77;2.53;;;;;;;18.37;52.25;99297.72;5087894;28;20182;-65
2022/12/10 06:37:37;;;;;;;3.10;2.20;;;;;;;18.38;51.88;99287.91;5088025;28;20175;-65
2022/12/10 06:40:03;;;;;;;3.73;2.80;;;;;;;18.41;51.82;99295.69;5088225;28;20185;-65
2022/12/10 06:42:29;;;;;;;4.17;2.80;;;;;;;18.39;52.19;99289.53;5080200;28;20187;-65
2022/12/10 06:44:54;;;;;;;3.60;2.63;;;;;;;18.41;51.86;99287.91;5067279;28;20191;-65
2022/12/10 06:47:19;;;;;;;4.07;2.67;;;;;;;18.37;51.76;99295.66;5066741;28;20168;-64
2022/12/10 06:49:45;;;;;;;4.67;2.70;;;;;;;18.38;51.93;99300.16;5070243;28;20188;-65
2022/12/10 06:52:10;;;;;;;4.47;2.67;;;;;;;18.38;52.19;99299.34;5073895;28;20184;-64
2022/12/10 06:54:36;;;;;;;3.30;2.27;;;;;;;18.41;51.80;99309.97;5070721;28;20183;-65
2022/12/10 06:57:01;;;;;;;3.73;2.30;;;;;;;18.41;51.82;99313.63;5073065;28;20175;-65
2022/12/10 06:59:26;;;;;;;4.30;2.70;;;;;;;18.43;51.68;99316.09;5071272;28;20167;-65
2022/12/10 07:01:52;;;;;;;4.00;2.97;;;;;;;18.38;52.41;99314.47;5072530;28;20172;-65
2022/12/10 07:04:17;;;;;;;3.90;2.90;;;;;;;18.45;51.57;99320.19;5088324;28;20186;-64
2022/12/10 07:06:43;;;;;;;3.17;2.23;;;;;;;18.40;51.77;99328.31;5085507;28;20252;-65
2022/12/10 07:09:09;;;;;;;3.93;2.63;;;;;;;18.42;51.90;99328.75;5073851;28;20193;-65
2022/12/10 07:11:35;;;;;;;4.20;2.67;;;;;;;18.42;52.11;99320.19;5089604;28;20211;-64
2022/12/10 07:14:00;;;;;;;3.87;2.43;;;;;;;18.46;51.75;99323.88;5073986;28;20429;-64
2022/12/10 07:16:28;;;;;;;4.33;2.43;;;;;;;18.42;51.71;99325.91;5072135;28;20160;-64
2022/12/10 07:18:54;;;;;;;3.17;2.53;;;;;;;18.44;51.61;99332.00;5074829;28;20194;-65
2022/12/10 07:21:22;;;;;;;3.17;2.33;;;;;;;18.39;51.77;99333.22;5054585;28;20528;-64
2022/12/10 07:23:47;;;;;;;3.70;2.67;;;;;;;18.43;51.58;99333.25;5074095;28;20433;-65
2022/12/10 07:26:13;;;;;;;3.80;2.17;;;;;;;18.44;51.50;99335.69;5053418;28;20422;-64
2022/12/10 07:28:38;;;;;;;4.70;3.03;;;;;;;18.40;51.46;99337.72;5071755;28;20193;-64
2022/12/10 07:31:05;;;;;;;3.90;2.83;;;;;;;18.43;51.96;99348.34;5071695;28;20204;-65
2022/12/10 07:33:30;;;;;;;3.67;2.73;;;;;;;18.42;51.80;99348.75;5079948;28;20490;-65
2022/12/10 07:35:56;;;;;;;3.93;2.70;;;;;;;18.42;51.91;99348.75;5090525;28;20425;-65
2022/12/10 07:38:22;;;;;;;3.97;2.17;;;;;;;18.40;51.82;99352.00;5089013;28;20172;-64
2022/12/10 07:40:48;;;;;;;3.83;2.57;;;;;;;18.44;51.79;99352.84;5089081;28;20179;-64
2022/12/10 07:43:14;;;;;;;3.20;2.60;;;;;;;18.42;51.57;99351.63;5072743;28;20457;-65
2022/12/10 07:45:39;;;;;;;3.13;2.20;;;;;;;18.40;51.92;99356.91;5091426;28;20413;-64
2022/12/10 07:48:05;;;;;;;3.87;2.60;;;;;;;18.41;52.04;99356.50;5085532;28;20187;-64
2022/12/10 07:50:30;;;;;;;3.60;2.57;;;;;;;18.44;51.58;99358.56;5089961;28;20218;-65
2022/12/10 07:52:56;;;;;;;3.60;2.40;;;;;;;18.43;51.59;99362.66;5090934;28;20175;-65
2022/12/10 07:55:21;;;;;;;3.70;2.50;;;;;;;18.47;51.86;99365.50;5074515;28;20195;-65
2022/12/10 07:57:46;;;;;;;3.17;2.40;;;;;;;18.43;51.73;99362.66;5071069;28;20225;-65
2022/12/10 08:00:12;;;;;;;3.97;2.77;;;;;;;18.43;51.84;99356.94;5070532;28;20164;-65
2022/12/10 08:02:39;;;;;;;3.03;2.13;;;;;;;18.42;51.85;99365.91;5072542;28;20214;-65
2022/12/10 08:05:05;;;;;;;3.90;2.57;;;;;;;18.44;51.66;99364.28;5090227;28;20446;-65
2022/12/10 08:07:30;;;;;;;3.60;2.80;;;;;;;18.43;51.84;99374.06;5091447;28;20173;-65
2022/12/10 08:09:55;;;;;;;3.57;2.17;;;;;;;18.46;51.71;99372.44;5087177;28;20195;-65
2022/12/10 08:12:21;;;;;;;3.40;2.40;;;;;;;18.37;51.95;99375.66;5091092;28;20190;-65
2022/12/10 08:14:46;;;;;;;2.93;1.97;;;;;;;18.41;51.61;99379.34;5089783;28;20185;-65
2022/12/10 08:17:12;;;;;;;3.73;2.57;;;;;;;18.49;51.73;99378.19;5090141;28;20175;-65
2022/12/10 08:19:37;;;;;;;2.80;2.20;;;;;;;18.44;51.82;99384.28;5087123;28;20178;-64
2022/12/10 08:22:03;;;;;;;3.50;2.20;;;;;;;18.44;51.68;99378.56;5089231;28;20190;-65
2022/12/10 08:24:28;;;;;;;3.73;2.40;;;;;;;18.45;51.66;99382.22;5086546;28;20179;-64
2022/12/10 08:26:53;;;;;;;3.27;2.40;;;;;;;18.44;51.88;99381.44;5088332;28;20179;-65
2022/12/10 08:29:19;;;;;;;3.50;2.57;;;;;;;18.44;52.00;99384.28;5087929;28;20178;-64
2022/12/10 08:31:44;;;;;;;3.50;2.20;;;;;;;18.43;51.98;99387.53;5089550;28;20175;-65
2022/12/10 08:34:14;;;;;;;3.03;2.03;;;;;;;18.42;51.68;99391.63;5076036;28;20190;-65
2022/12/10 08:36:39;;;;;;;3.07;2.20;;;;;;;18.38;51.62;99400.19;5068233;28;20179;-64
2022/12/10 08:39:04;;;;;;;3.33;2.30;;;;;;;18.45;51.72;99403.06;5071573;28;20430;-64
2022/12/10 08:41:30;;;;;;;4.33;2.70;;;;;;;18.43;51.55;99396.94;5090250;28;20179;-64
2022/12/10 08:43:55;;;;;;;3.90;2.23;;;;;;;18.44;51.79;99403.47;5090385;28;20159;-65
2022/12/10 08:46:21;;;;;;;3.93;2.30;;;;;;;18.47;51.81;99392.03;5091022;28;20167;-64
2022/12/10 08:48:47;;;;;;;3.83;2.37;;;;;;;18.46;51.82;99396.13;5074622;28;20182;-64
2022/12/10 08:51:14;;;;;;;3.40;2.10;;;;;;;18.41;51.89;99393.66;5070041;28;20199;-64
2022/12/10 08:53:40;;;;;;;3.50;2.27;;;;;;;18.40;51.78;99394.88;5069693;28;20168;-65
2022/12/10 08:56:06;;;;;;;4.00;2.67;;;;;;;18.41;51.92;99398.56;5069736;28;20467;-65
2022/12/10 08:58:31;;;;;;;3.30;2.30;;;;;;;18.42;52.03;99400.19;5069744;28;20227;-64
2022/12/10 09:00:57;;;;;;;3.20;2.50;;;;;;;18.44;51.78;99407.16;5055126;28;20212;-65
2022/12/10 09:03:23;;;;;;;3.87;2.67;;;;;;;18.42;51.95;99411.63;5058972;28;20310;-64
2022/12/10 09:05:48;;;;;;;3.63;2.13;;;;;;;18.39;51.88;99406.69;5069874;28;20405;-65
2022/12/10 09:08:14;;;;;;;2.97;2.10;;;;;;;18.37;51.90;99412.81;5069228;28;20418;-65
2022/12/10 09:10:39;;;;;;;3.40;2.43;;;;;;;18.44;51.74;99415.72;5052372;28;20204;-64
2022/12/10 09:13:05;;;;;;;3.73;2.63;;;;;;;18.41;52.10;99422.22;5049812;28;20176;-65
2022/12/10 09:15:31;;;;;;;3.97;2.60;;;;;;;18.40;51.92;99425.47;5038676;28;20203;-64
2022/12/10 09:17:56;;;;;;;2.90;2.10;;;;;;;18.45;51.92;99425.09;5067508;28;20184;-65
2022/12/10 09:20:21;;;;;;;3.53;2.50;;;;;;;18.47;51.59;99432.03;5034636;28;20244;-64
2022/12/10 09:22:47;;;;;;;3.23;2.20;;;;;;;18.45;51.72;99423.06;5050086;28;20180;-65
2022/12/10 09:25:16;;;;;;;3.37;2.40;;;;;;;18.45;51.83;99434.50;5052144;28;20188;-65
2022/12/10 09:27:42;;;;;;;3.10;2.20;;;;;;;18.39;51.97;99436.09;5032245;28;20184;-64
2022/12/10 09:30:08;;;;;;;3.93;2.50;;;;;;;18.42;52.13;99435.28;5049267;28;20958;-65
2022/12/10 09:32:33;;;;;;;2.90;2.10;;;;;;;18.38;52.00;99443.06;5053259;28;20262;-65
2022/12/10 09:34:59;;;;;;;3.73;2.60;;;;;;;18.38;51.71;99442.22;5070040;28;20406;-65
2022/12/10 09:37:24;;;;;;;3.30;2.40;;;;;;;18.36;51.93;99447.53;5061174;28;20204;-65
2022/12/10 09:39:50;;;;;;;3.23;2.10;;;;;;;18.38;51.94;99445.06;5051085;28;20172;-65
2022/12/10 09:42:24;;;;;;;3.03;2.10;;;;;;;18.41;51.91;99452.88;5068486;28;20194;-65
2022/12/10 09:45:13;;;;;;;3.00;2.13;;;;;;;18.42;51.90;99446.72;5051525;28;20238;-65
2022/12/10 09:48:01;;;;;;;3.50;2.47;;;;;;;18.43;52.04;99454.09;5048792;28;20420;-65
2022/12/10 09:50:49;;;;;;;3.80;2.43;;;;;;;18.43;51.85;99448.38;5051334;28;20466;-64
2022/12/10 09:53:15;;;;;;;3.33;2.23;;;;;;;18.43;51.80;99444.69;5048534;28;20454;-64
2022/12/10 09:55:43;;;;;;;3.17;2.17;;;;;;;18.49;51.79;99455.34;5035809;28;20502;-65
2022/12/10 09:58:21;;;;;;;3.57;2.30;;;;;;;18.43;51.74;99453.25;5031538;28;20220;-64
2022/12/10 10:00:49;;;;;;;4.43;2.60;;;;;;;18.42;52.06;99446.72;5049332;28;20395;-64
2022/12/10 10:03:15;;;;;;;3.00;2.20;;;;;;;18.50;51.97;99454.13;5059064;28;20492;-65
2022/12/10 10:05:42;;;;;;;2.93;2.20;;;;;;;18.47;51.81;99449.19;5050975;28;20438;-64
2022/12/10 10:08:31;;;;;;;3.30;2.40;;;;;;;18.48;51.64;99452.88;5028752;28;20192;-65
2022/12/10 10:10:57;;;;;;;3.33;2.30;;;;;;;18.48;51.42;99445.16;5034098;28;20516;-64
2022/12/10 10:13:36;;;;;;;3.80;2.73;;;;;;;18.48;51.59;99456.56;5017021;28;20439;-64
2022/12/10 10:16:28;;;;;;;2.83;2.43;;;;;;;18.47;51.83;99452.06;5048966;28;20168;-64
2022/12/10 10:19:14;;;;;;;2.87;1.97;;;;;;;18.41;51.77;99447.94;5056154;28;20490;-65
2022/12/10 10:21:41;;;;;;;3.90;2.27;;;;;;;18.48;51.76;99447.16;5066608;28;20430;-64
2022/12/10 10:24:07;;;;;;;3.43;1.83;;;;;;;18.45;52.08;99454.50;5048854;28;20421;-64
2022/12/10 10:26:32;;;;;;;2.70;2.00;;;;;;;18.44;51.64;99455.72;5068644;28;20414;-65
2022/12/10 10:29:04;;;;;;;2.73;1.80;;;;;;;18.53;51.47;99456.19;5056261;28;20818;-64
2022/12/10 10:31:30;;;;;;;3.53;2.40;;;;;;;18.47;51.70;99462.69;5033839;28;20211;-65
2022/12/10 10:33:58;;;;;;;3.07;2.00;;;;;;;18.44;51.70;99458.59;5043894;28;20414;-64
2022/12/10 10:36:25;;;;;;;3.27;2.17;;;;;;;18.45;51.64;99457.38;5065894;28;20430;-64
2022/12/10 10:38:51;;;;;;;3.83;2.40;;;;;;;18.44;51.67;99449.19;5068540;28;20450;-65
2022/12/10 10:41:16;;;;;;;3.20;2.30;;;;;;;18.42;51.86;99449.56;5068512;28;20436;-64
2022/12/10 10:43:44;;;;;;;2.67;2.10;;;;;;;18.44;51.84;99454.91;5050795;28;20191;-65
2022/12/10 10:46:22;;;;;;;3.63;1.93;;;;;;;18.49;51.58;99463.91;5031587;28;20212;-64
2022/12/10 10:48:48;;;;;;;2.60;1.97;;;;;;;18.44;51.95;99460.63;5052071;28;20443;-65
2022/12/10 10:51:18;;;;;;;2.83;2.10;;;;;;;18.49;51.70;99463.91;5049459;28;20532;-64
2022/12/10 10:53:47;;;;;;;3.37;2.07;;;;;;;18.42;52.01;99463.06;5066158;28;20196;-64
2022/12/10 10:56:21;;;;;;;2.47;1.40;;;;;;;18.45;52.00;99470.81;5049012;28;20407;-64
2022/12/10 10:59:19;;;;;;;2.90;2.10;;;;;;;18.48;51.89;99465.16;5031085;28;20469;-65
2022/12/10 11:01:49;;;;;;;3.13;2.10;;;;;;;18.46;51.90;99476.13;5053056;28;20426;-64
2022/12/10 11:04:15;;;;;;;2.80;1.90;;;;;;;18.41;51.78;99472.88;5051053;28;20440;-65
2022/12/10 11:06:41;;;;;;;2.50;1.73;;;;;;;18.41;51.65;99476.53;5065228;28;20448;-64
2022/12/10 11:09:06;;;;;;;2.90;2.10;;;;;;;18.41;51.80;99476.53;5065219;28;20446;-64
2022/12/10 11:11:40;;;;;;;3.20;2.20;;;;;;;18.49;51.92;99469.63;5069089;28;20208;-65
2022/12/10 11:14:14;;;;;;;3.43;1.90;;;;;;;18.47;51.82;99483.50;5064492;28;20250;-64
2022/12/10 11:16:40;;;;;;;4.47;2.40;;;;;;;18.44;52.04;99478.59;5068836;28;20407;-64
2022/12/10 11:19:16;;;;;;;2.63;1.70;;;;;;;18.41;51.75;99478.59;5050646;28;20464;-64
2022/12/10 11:21:41;;;;;;;2.60;1.90;;;;;;;18.42;51.81;99474.50;5035378;28;20164;-64
2022/12/10 11:24:11;;;;;;;3.23;2.27;;;;;;;18.46;51.74;99473.28;5048468;28;20439;-64
2022/12/10 11:26:45;;;;;;;4.00;2.20;;;;;;;18.48;51.90;99468.00;5048770;28;20164;-65
2022/12/10 11:29:33;;;;;;;2.90;1.87;;;;;;;18.44;51.83;99472.03;5052550;28;20460;-64
2022/12/10 11:32:17;;;;;;;4.23;2.30;;;;;;;18.49;51.61;99468.81;5059958;28;20473;-64
2022/12/10 11:34:54;;;;;;;3.23;2.37;;;;;;;18.35;51.69;99474.44;5060922;28;20453;-64
2022/12/10 11:37:26;;;;;;;13.97;10.20;;;;;;;17.76;45.28;99478.50;5051749;28;20784;-62
2022/12/10 11:40:03;;;;;;;8.13;6.30;;;;;;;17.69;45.95;99481.31;5044453;28;20933;-62
2022/12/10 11:42:50;;;;;;;10.73;7.20;;;;;;;17.90;45.44;99472.09;5020879;28;20422;-62
2022/12/10 11:45:25;;;;;;;9.30;6.50;;;;;;;18.15;44.77;99476.75;5054727;28;20449;-63
2022/12/10 11:48:04;;;;;;;14.30;7.03;;;;;;;18.14;45.68;99474.28;5051239;28;20448;-63
2022/12/10 11:50:49;;;;;;;19.60;7.40;;;;;;;18.23;45.92;99475.59;5066517;28;20456;-63